Agios Rafael — SY3540 — position and weather

sailwx.info

Track history (hours):
 
Tides and Currents Weather Stations Pressure Air Temp Water Temp Dewpoint Dewpoint Depression Visibility Wind Speed Wind Dir Waves Ship Positions

Agios Rafael

Last reported at 2018-Jul-07 21:42 UTC. Time now 2018-Aug-19 00:28 UTC.
Position N 39°47' E 023°53'.
Warning: this ship's position is 42 days out of date.

Type: Cargo ship. MMSI: 237621300.

Date/timePositionNaut miles runAvg speedWind from/ knotsBaromVisibWave heightAir tempDewpointWater temp
2018-Jul-07 21:42N 39°47' E 023°53'2 9.1
2018-Jul-07 21:29N 39°49' E 023°54'5 9.7
2018-Jul-07 21:00N 39°53' E 023°58'5 9.8
2018-Jul-07 20:30N 39°57' E 024°02'5 9.6
2018-Jul-07 19:59N 40°01' E 024°05'4 9.3
2018-Jul-07 19:30N 40°05' E 024°07'5 9.1
2018-Jul-07 19:00N 40°10' E 024°09'5 0.5
2018-Jul-07 09:30N 40°14' E 024°11'0 0.4
2018-Jul-07 08:59N 40°14' E 024°11'0 0.4
2018-Jul-07 08:21N 40°14' E 024°11'1 1.3
2018-Jul-07 07:54N 40°14' E 024°12'0 0.0
2018-Jul-07 03:45N 40°14' E 024°12'1 2.4
2018-Jul-07 03:29N 40°14' E 024°11'6 8.5
2018-Jul-07 02:45N 40°08' E 024°08'3 9.1
2018-Jul-07 02:28N 40°05' E 024°07'5 8.8
2018-Jul-07 01:56N 40°01' E 024°05'4 8.6
2018-Jul-07 01:30N 39°58' E 024°03'4 8.2
2018-Jul-07 01:00N 39°55' E 023°59'  
2018-Jul-04 01:12N 37°03' E 024°09'510.0
2018-Jul-04 00:45N 37°07' E 024°05'2 9.7
2018-Jul-04 00:30N 37°09' E 024°04'5 9.7
2018-Jul-04 00:01N 37°13' E 024°01'6 9.3
2018-Jul-03 23:24N 37°18' E 023°57'4 9.8
2018-Jul-03 23:00N 37°22' E 023°55'510.0
2018-Jul-03 22:31N 37°26' E 023°51'5 9.9
2018-Jul-03 22:00N 37°30' E 023°48'510.0
2018-Jul-03 21:31N 37°34' E 023°44'5 9.8
2018-Jul-03 21:01N 37°38' E 023°41'5 9.4
2018-Jul-03 20:30N 37°43' E 023°38'5 9.1
2018-Jul-03 20:00N 37°46' E 023°36'5 9.1
2018-Jul-03 19:31N 37°47' E 023°30'2 3.1
2018-Jul-03 19:00N 37°46' E 023°28'0 0.0
2018-Jul-03 18:29N 37°46' E 023°28'0 0.0
2018-Jul-03 18:00N 37°46' E 023°28'0 0.0
2018-Jul-03 17:31N 37°46' E 023°28'0 0.0
2018-Jul-03 17:00N 37°46' E 023°28'0 0.0
2018-Jul-03 16:31N 37°46' E 023°28'0 0.0
2018-Jul-03 16:00N 37°46' E 023°28'0 0.0
2018-Jul-03 15:30N 37°46' E 023°28'0 0.0
2018-Jul-03 15:00N 37°46' E 023°28'0 0.0
2018-Jul-03 14:31N 37°46' E 023°28'0 0.0
2018-Jul-03 14:01N 37°46' E 023°28'0 0.0
2018-Jul-03 13:30N 37°46' E 023°28'0 0.0
2018-Jul-03 13:00N 37°46' E 023°28'0 0.0
2018-Jul-03 12:31N 37°46' E 023°28'0 0.0
2018-Jul-03 12:01N 37°46' E 023°28'0 0.0
2018-Jul-03 11:30N 37°46' E 023°28'0 0.0
2018-Jul-03 11:00N 37°46' E 023°28'0 0.0
2018-Jul-03 10:30N 37°46' E 023°28'2 3.4
2018-Jul-03 10:00N 37°47' E 023°30'4 7.8
2018-Jul-03 09:30N 37°46' E 023°35'4 9.0
2018-Jul-03 09:00N 37°43' E 023°38'4 8.9
2018-Jul-03 08:30N 37°39' E 023°41'103 3.1
2018-Jul-01 23:03N 39°22' E 023°52'1 9.2
2018-Jul-01 22:58N 39°22' E 023°53'5 9.1
2018-Jul-01 22:22N 39°24' E 023°60'3 9.1
2018-Jul-01 22:00N 39°25' E 024°04'5 9.1
2018-Jul-01 21:30N 39°27' E 024°09'16 9.1
2018-Jul-01 19:41N 39°30' E 024°30'2 9.0
2018-Jul-01 19:29N 39°30' E 024°33'8 9.0
2018-Jul-01 18:35N 39°31' E 024°43'7 9.3
2018-Jul-01 17:50N 39°32' E 024°52'5 9.2
2018-Jul-01 17:18N 39°32' E 024°58'1 1.6
2018-Jul-01 16:57N 39°32' E 024°59'0 0.0
2018-Jul-01 16:30N 39°32' E 024°59'0 0.0
2018-Jul-01 16:00N 39°32' E 024°59'0 0.0
2018-Jul-01 15:30N 39°32' E 024°59'49 1.3
2018-Jun-30 00:30N 39°41' E 023°56'6 9.0
2018-Jun-29 23:48N 39°46' E 024°01'3 9.6
2018-Jun-29 23:30N 39°48' E 024°04'510.2
2018-Jun-29 23:00N 39°52' E 024°08'610.4
2018-Jun-29 22:28N 39°56' E 024°13'510.5
2018-Jun-29 21:59N 40°00' E 024°17'1210.2
2018-Jun-29 20:46N 40°09' E 024°28'2 5.6
2018-Jun-29 20:29N 40°11' E 024°28'1 1.3
2018-Jun-29 20:00N 40°11' E 024°27'5 8.2
2018-Jun-29 19:25N 40°16' E 024°27'5 9.8
2018-Jun-29 18:58N 40°20' E 024°26'5 9.7
2018-Jun-29 18:30N 40°25' E 024°25'7 9.6
2018-Jun-29 17:47N 40°32' E 024°24'20 5.1
2018-Jun-29 13:58N 40°51' E 024°19'0 0.0
2018-Jun-29 10:44N 40°51' E 024°19'0 0.0
2018-Jun-29 10:27N 40°51' E 024°19'0 0.0
2018-Jun-29 09:38N 40°51' E 024°19'0 0.0
2018-Jun-29 09:28N 40°51' E 024°19'0 0.0
2018-Jun-29 08:49N 40°51' E 024°19'0 0.0
2018-Jun-29 07:24N 40°51' E 024°19'0 0.0
2018-Jun-29 06:54N 40°51' E 024°19'0 0.0
2018-Jun-29 06:27N 40°51' E 024°19'0 0.0
2018-Jun-29 05:59N 40°51' E 024°19'0 0.0
2018-Jun-29 05:29N 40°51' E 024°19'0 0.0
2018-Jun-29 04:54N 40°51' E 024°19'0 0.0
2018-Jun-29 04:18N 40°51' E 024°19'0 0.0
2018-Jun-29 03:50N 40°51' E 024°19'0 0.0
2018-Jun-28 21:47N 40°51' E 024°19'0 1.2
2018-Jun-28 21:30N 40°51' E 024°19'3 6.4
2018-Jun-28 21:00N 40°48' E 024°22'4 8.7
2018-Jun-28 20:30N 40°44' E 024°24'4 8.9
2018-Jun-28 20:01N 40°40' E 024°26'5 8.9
2018-Jun-28 19:29N 40°36' E 024°29'4 9.0
2018-Jun-28 19:00N 40°32' E 024°32'5 9.3
2018-Jun-28 18:30N 40°28' E 024°36'5 9.3
2018-Jun-28 17:59N 40°24' E 024°39'9 9.1
2018-Jun-28 16:59N 40°16' E 024°45'13 8.9
2018-Jun-28 15:31N 40°05' E 024°53'  
Track history (hours):
 
Tides and Currents Weather Stations Pressure Air Temp Water Temp Dewpoint Dewpoint Depression Visibility Wind Speed Wind Dir Waves Ship Positions

Agios Rafael

Last reported at 2018-Jul-07 21:42 UTC. Time now 2018-Aug-19 00:28 UTC.
Position N 39°47' E 023°53'.
Warning: this ship's position is 42 days out of date.

Type: Cargo ship. MMSI: 237621300.

Date/timePositionNaut miles runAvg speedWind from/ knotsBaromVisibWave heightAir tempDewpointWater temp
2018-Jul-07 21:42N 39°47' E 023°53'2 9.1
2018-Jul-07 21:29N 39°49' E 023°54'5 9.7
2018-Jul-07 21:00N 39°53' E 023°58'5 9.8
2018-Jul-07 20:30N 39°57' E 024°02'5 9.6
2018-Jul-07 19:59N 40°01' E 024°05'4 9.3
2018-Jul-07 19:30N 40°05' E 024°07'5 9.1
2018-Jul-07 19:00N 40°10' E 024°09'5 0.5
2018-Jul-07 09:30N 40°14' E 024°11'0 0.4
2018-Jul-07 08:59N 40°14' E 024°11'0 0.4
2018-Jul-07 08:21N 40°14' E 024°11'1 1.3
2018-Jul-07 07:54N 40°14' E 024°12'0 0.0
2018-Jul-07 03:45N 40°14' E 024°12'1 2.4
2018-Jul-07 03:29N 40°14' E 024°11'6 8.5
2018-Jul-07 02:45N 40°08' E 024°08'3 9.1
2018-Jul-07 02:28N 40°05' E 024°07'5 8.8
2018-Jul-07 01:56N 40°01' E 024°05'4 8.6
2018-Jul-07 01:30N 39°58' E 024°03'4 8.2
2018-Jul-07 01:00N 39°55' E 023°59'  
2018-Jul-04 01:12N 37°03' E 024°09'510.0
2018-Jul-04 00:45N 37°07' E 024°05'2 9.7
2018-Jul-04 00:30N 37°09' E 024°04'5 9.7
2018-Jul-04 00:01N 37°13' E 024°01'6 9.3
2018-Jul-03 23:24N 37°18' E 023°57'4 9.8
2018-Jul-03 23:00N 37°22' E 023°55'510.0
2018-Jul-03 22:31N 37°26' E 023°51'5 9.9
2018-Jul-03 22:00N 37°30' E 023°48'510.0
2018-Jul-03 21:31N 37°34' E 023°44'5 9.8
2018-Jul-03 21:01N 37°38' E 023°41'5 9.4
2018-Jul-03 20:30N 37°43' E 023°38'5 9.1
2018-Jul-03 20:00N 37°46' E 023°36'5 9.1
2018-Jul-03 19:31N 37°47' E 023°30'2 3.1
2018-Jul-03 19:00N 37°46' E 023°28'0 0.0
2018-Jul-03 18:29N 37°46' E 023°28'0 0.0
2018-Jul-03 18:00N 37°46' E 023°28'0 0.0
2018-Jul-03 17:31N 37°46' E 023°28'0 0.0
2018-Jul-03 17:00N 37°46' E 023°28'0 0.0
2018-Jul-03 16:31N 37°46' E 023°28'0 0.0
2018-Jul-03 16:00N 37°46' E 023°28'0 0.0
2018-Jul-03 15:30N 37°46' E 023°28'0 0.0
2018-Jul-03 15:00N 37°46' E 023°28'0 0.0
2018-Jul-03 14:31N 37°46' E 023°28'0 0.0
2018-Jul-03 14:01N 37°46' E 023°28'0 0.0
2018-Jul-03 13:30N 37°46' E 023°28'0 0.0
2018-Jul-03 13:00N 37°46' E 023°28'0 0.0
2018-Jul-03 12:31N 37°46' E 023°28'0 0.0
2018-Jul-03 12:01N 37°46' E 023°28'0 0.0
2018-Jul-03 11:30N 37°46' E 023°28'0 0.0
2018-Jul-03 11:00N 37°46' E 023°28'0 0.0
2018-Jul-03 10:30N 37°46' E 023°28'2 3.4
2018-Jul-03 10:00N 37°47' E 023°30'4 7.8
2018-Jul-03 09:30N 37°46' E 023°35'4 9.0
2018-Jul-03 09:00N 37°43' E 023°38'4 8.9
2018-Jul-03 08:30N 37°39' E 023°41'103 3.1
2018-Jul-01 23:03N 39°22' E 023°52'1 9.2
2018-Jul-01 22:58N 39°22' E 023°53'5 9.1
2018-Jul-01 22:22N 39°24' E 023°60'3 9.1
2018-Jul-01 22:00N 39°25' E 024°04'5 9.1
2018-Jul-01 21:30N 39°27' E 024°09'16 9.1
2018-Jul-01 19:41N 39°30' E 024°30'2 9.0
2018-Jul-01 19:29N 39°30' E 024°33'8 9.0
2018-Jul-01 18:35N 39°31' E 024°43'7 9.3
2018-Jul-01 17:50N 39°32' E 024°52'5 9.2
2018-Jul-01 17:18N 39°32' E 024°58'1 1.6
2018-Jul-01 16:57N 39°32' E 024°59'0 0.0
2018-Jul-01 16:30N 39°32' E 024°59'0 0.0
2018-Jul-01 16:00N 39°32' E 024°59'0 0.0
2018-Jul-01 15:30N 39°32' E 024°59'49 1.3
2018-Jun-30 00:30N 39°41' E 023°56'6 9.0
2018-Jun-29 23:48N 39°46' E 024°01'3 9.6
2018-Jun-29 23:30N 39°48' E 024°04'510.2
2018-Jun-29 23:00N 39°52' E 024°08'610.4
2018-Jun-29 22:28N 39°56' E 024°13'510.5
2018-Jun-29 21:59N 40°00' E 024°17'1210.2
2018-Jun-29 20:46N 40°09' E 024°28'2 5.6
2018-Jun-29 20:29N 40°11' E 024°28'1 1.3
2018-Jun-29 20:00N 40°11' E 024°27'5 8.2
2018-Jun-29 19:25N 40°16' E 024°27'5 9.8
2018-Jun-29 18:58N 40°20' E 024°26'5 9.7
2018-Jun-29 18:30N 40°25' E 024°25'7 9.6
2018-Jun-29 17:47N 40°32' E 024°24'20 5.1
2018-Jun-29 13:58N 40°51' E 024°19'0 0.0
2018-Jun-29 10:44N 40°51' E 024°19'0 0.0
2018-Jun-29 10:27N 40°51' E 024°19'0 0.0
2018-Jun-29 09:38N 40°51' E 024°19'0 0.0
2018-Jun-29 09:28N 40°51' E 024°19'0 0.0
2018-Jun-29 08:49N 40°51' E 024°19'0 0.0
2018-Jun-29 07:24N 40°51' E 024°19'0 0.0
2018-Jun-29 06:54N 40°51' E 024°19'0 0.0
2018-Jun-29 06:27N 40°51' E 024°19'0 0.0
2018-Jun-29 05:59N 40°51' E 024°19'0 0.0
2018-Jun-29 05:29N 40°51' E 024°19'0 0.0
2018-Jun-29 04:54N 40°51' E 024°19'0 0.0
2018-Jun-29 04:18N 40°51' E 024°19'0 0.0
2018-Jun-29 03:50N 40°51' E 024°19'0 0.0
2018-Jun-28 21:47N 40°51' E 024°19'0 1.2
2018-Jun-28 21:30N 40°51' E 024°19'3 6.4
2018-Jun-28 21:00N 40°48' E 024°22'4 8.7
2018-Jun-28 20:30N 40°44' E 024°24'4 8.9
2018-Jun-28 20:01N 40°40' E 024°26'5 8.9
2018-Jun-28 19:29N 40°36' E 024°29'4 9.0
2018-Jun-28 19:00N 40°32' E 024°32'5 9.3
2018-Jun-28 18:30N 40°28' E 024°36'5 9.3
2018-Jun-28 17:59N 40°24' E 024°39'9 9.1
2018-Jun-28 16:59N 40°16' E 024°45'13 8.9
2018-Jun-28 15:31N 40°05' E 024°53'  

Dump ship's entire track history